Terminal Aerodrome Forecast
Issued by NWS

Home | Current Version | Previous Version | Text Only | Print | Product List | Glossary On
Versions: 1 2 3 4 5 6 7 8 9 10 11 12 13 14 15
000
FTUS46 KSEW 051100
TAFBLI
TAF
KBLI 051120Z 0512/0612 VRB03KT P6SM BKN200
     FM052000 17005KT P6SM SCT100 BKN200
     FM060000 18005KT P6SM BKN070 BKN150=

USA.gov is the U.S. government's official web portal to all federal, state and local government web resources and services.